sensor_id;sensor_type;location;lat;lon;timestamp;pressure;altitude;pressure_sealevel;temperature
53667;BMP280;39568;51.026;5.468;2023-05-24T00:01:39;101550.94;;;7.33
53667;BMP280;39568;51.026;5.468;2023-05-24T00:04:09;101559.16;;;7.25
53667;BMP280;39568;51.026;5.468;2023-05-24T00:06:36;101560.22;;;7.28
53667;BMP280;39568;51.026;5.468;2023-05-24T00:09:03;101564.16;;;7.23
53667;BMP280;39568;51.026;5.468;2023-05-24T00:11:30;101566.50;;;7.21
53667;BMP280;39568;51.026;5.468;2023-05-24T00:13:57;101565.88;;;7.17
53667;BMP280;39568;51.026;5.468;2023-05-24T00:16:23;101566.78;;;7.14
53667;BMP280;39568;51.026;5.468;2023-05-24T00:18:53;101566.91;;;7.11
53667;BMP280;39568;51.026;5.468;2023-05-24T00:21:23;101566.47;;;7.03
53667;BMP280;39568;51.026;5.468;2023-05-24T00:23:51;101568.78;;;7.01
53667;BMP280;39568;51.026;5.468;2023-05-24T00:26:19;101565.53;;;6.97
53667;BMP280;39568;51.026;5.468;2023-05-24T00:28:49;101555.81;;;6.94
53667;BMP280;39568;51.026;5.468;2023-05-24T00:31:16;101561.72;;;6.89
53667;BMP280;39568;51.026;5.468;2023-05-24T00:33:43;101557.44;;;6.92
53667;BMP280;39568;51.026;5.468;2023-05-24T00:36:12;101558.69;;;6.78
53667;BMP280;39568;51.026;5.468;2023-05-24T00:38:42;101556.91;;;6.75
53667;BMP280;39568;51.026;5.468;2023-05-24T00:41:09;101553.34;;;6.69
53667;BMP280;39568;51.026;5.468;2023-05-24T00:43:36;101550.53;;;6.63
53667;BMP280;39568;51.026;5.468;2023-05-24T00:46:15;101546.53;;;6.59
53667;BMP280;39568;51.026;5.468;2023-05-24T00:48:44;101552.16;;;6.61
53667;BMP280;39568;51.026;5.468;2023-05-24T00:51:12;101554.75;;;6.52
53667;BMP280;39568;51.026;5.468;2023-05-24T00:53:44;101548.56;;;6.55
53667;BMP280;39568;51.026;5.468;2023-05-24T00:56:14;101541.44;;;6.43
53667;BMP280;39568;51.026;5.468;2023-05-24T00:58:41;101539.69;;;6.40
53667;BMP280;39568;51.026;5.468;2023-05-24T01:01:09;101541.59;;;6.39
53667;BMP280;39568;51.026;5.468;2023-05-24T01:03:37;101546.56;;;6.37
53667;BMP280;39568;51.026;5.468;2023-05-24T01:06:05;101548.34;;;6.40
53667;BMP280;39568;51.026;5.468;2023-05-24T01:08:44;101540.22;;;6.56
53667;BMP280;39568;51.026;5.468;2023-05-24T01:11:23;101545.66;;;6.53
53667;BMP280;39568;51.026;5.468;2023-05-24T01:13:58;101546.97;;;6.27
53667;BMP280;39568;51.026;5.468;2023-05-24T01:16:35;101541.50;;;6.08
53667;BMP280;39568;51.026;5.468;2023-05-24T01:19:13;101553.47;;;6.00
53667;BMP280;39568;51.026;5.468;2023-05-24T01:22:00;101557.22;;;5.90
53667;BMP280;39568;51.026;5.468;2023-05-24T01:24:43;101547.44;;;5.78
53667;BMP280;39568;51.026;5.468;2023-05-24T01:27:17;101547.44;;;5.66
53667;BMP280;39568;51.026;5.468;2023-05-24T01:29:45;101544.63;;;5.60
53667;BMP280;39568;51.026;5.468;2023-05-24T01:32:19;101546.63;;;5.56
53667;BMP280;39568;51.026;5.468;2023-05-24T01:34:46;101544.69;;;5.69
53667;BMP280;39568;51.026;5.468;2023-05-24T01:37:13;101549.28;;;5.90
53667;BMP280;39568;51.026;5.468;2023-05-24T01:39:40;101557.84;;;5.94
53667;BMP280;39568;51.026;5.468;2023-05-24T01:42:12;101543.91;;;5.94
53667;BMP280;39568;51.026;5.468;2023-05-24T01:44:48;101549.66;;;5.80
53667;BMP280;39568;51.026;5.468;2023-05-24T01:47:24;101545.31;;;5.73
53667;BMP280;39568;51.026;5.468;2023-05-24T01:49:58;101541.75;;;5.67
53667;BMP280;39568;51.026;5.468;2023-05-24T01:52:31;101548.31;;;5.50
53667;BMP280;39568;51.026;5.468;2023-05-24T01:55:00;101540.41;;;5.37
53667;BMP280;39568;51.026;5.468;2023-05-24T01:57:28;101543.69;;;5.29
53667;BMP280;39568;51.026;5.468;2023-05-24T01:59:58;101541.69;;;5.20
53667;BMP280;39568;51.026;5.468;2023-05-24T02:02:28;101543.81;;;5.13
53667;BMP280;39568;51.026;5.468;2023-05-24T02:04:55;101528.78;;;5.10
53667;BMP280;39568;51.026;5.468;2023-05-24T02:07:22;101535.88;;;5.13
53667;BMP280;39568;51.026;5.468;2023-05-24T02:09:50;101533.16;;;5.03
53667;BMP280;39568;51.026;5.468;2023-05-24T02:12:17;101526.63;;;5.21
53667;BMP280;39568;51.026;5.468;2023-05-24T02:14:43;101523.75;;;5.28
53667;BMP280;39568;51.026;5.468;2023-05-24T02:17:11;101528.28;;;5.15
53667;BMP280;39568;51.026;5.468;2023-05-24T02:19:42;101520.47;;;5.11
53667;BMP280;39568;51.026;5.468;2023-05-24T02:22:09;101525.84;;;4.95
53667;BMP280;39568;51.026;5.468;2023-05-24T02:24:38;101532.94;;;4.85
53667;BMP280;39568;51.026;5.468;2023-05-24T02:27:05;101519.59;;;4.76
53667;BMP280;39568;51.026;5.468;2023-05-24T02:29:32;101517.81;;;4.73
53667;BMP280;39568;51.026;5.468;2023-05-24T02:31:59;101516.31;;;4.72
53667;BMP280;39568;51.026;5.468;2023-05-24T02:34:28;101517.41;;;4.87
53667;BMP280;39568;51.026;5.468;2023-05-24T02:36:54;101531.72;;;4.74
53667;BMP280;39568;51.026;5.468;2023-05-24T02:39:21;101521.06;;;4.65
53667;BMP280;39568;51.026;5.468;2023-05-24T02:41:48;101524.63;;;4.58
53667;BMP280;39568;51.026;5.468;2023-05-24T02:44:15;101524.91;;;4.47
53667;BMP280;39568;51.026;5.468;2023-05-24T02:46:42;101520.56;;;4.41
53667;BMP280;39568;51.026;5.468;2023-05-24T02:49:10;101517.59;;;4.39
53667;BMP280;39568;51.026;5.468;2023-05-24T02:51:40;101512.97;;;4.30
53667;BMP280;39568;51.026;5.468;2023-05-24T02:54:06;101513.56;;;4.50
53667;BMP280;39568;51.026;5.468;2023-05-24T02:56:34;101519.91;;;4.66
53667;BMP280;39568;51.026;5.468;2023-05-24T02:59:01;101519.56;;;4.51
53667;BMP280;39568;51.026;5.468;2023-05-24T03:01:29;101512.09;;;4.49
53667;BMP280;39568;51.026;5.468;2023-05-24T03:03:55;101516.53;;;4.36
53667;BMP280;39568;51.026;5.468;2023-05-24T03:06:24;101510.09;;;4.25
53667;BMP280;39568;51.026;5.468;2023-05-24T03:08:52;101509.13;;;4.19
53667;BMP280;39568;51.026;5.468;2023-05-24T03:11:19;101501.75;;;4.14
53667;BMP280;39568;51.026;5.468;2023-05-24T03:13:47;101500.69;;;4.11
53667;BMP280;39568;51.026;5.468;2023-05-24T03:16:14;101496.31;;;4.05
53667;BMP280;39568;51.026;5.468;2023-05-24T03:18:42;101505.03;;;4.02
53667;BMP280;39568;51.026;5.468;2023-05-24T03:21:08;101498.06;;;3.95
53667;BMP280;39568;51.026;5.468;2023-05-24T03:23:35;101500.94;;;3.84
53667;BMP280;39568;51.026;5.468;2023-05-24T03:26:03;101513.78;;;3.82
53667;BMP280;39568;51.026;5.468;2023-05-24T03:28:31;101505.25;;;3.78
53667;BMP280;39568;51.026;5.468;2023-05-24T03:30:58;101496.34;;;3.72
53667;BMP280;39568;51.026;5.468;2023-05-24T03:33:26;101504.56;;;3.74
53667;BMP280;39568;51.026;5.468;2023-05-24T03:35:58;101509.50;;;3.72
53667;BMP280;39568;51.026;5.468;2023-05-24T03:38:30;101511.84;;;3.70
53667;BMP280;39568;51.026;5.468;2023-05-24T03:40:58;101514.75;;;3.72
53667;BMP280;39568;51.026;5.468;2023-05-24T03:43:26;101516.44;;;3.66
53667;BMP280;39568;51.026;5.468;2023-05-24T03:45:52;101512.41;;;3.62
53667;BMP280;39568;51.026;5.468;2023-05-24T03:48:19;101517.25;;;3.63
53667;BMP280;39568;51.026;5.468;2023-05-24T03:50:46;101521.03;;;3.62
53667;BMP280;39568;51.026;5.468;2023-05-24T03:53:13;101523.28;;;3.64
53667;BMP280;39568;51.026;5.468;2023-05-24T03:55:40;101517.19;;;3.67
53667;BMP280;39568;51.026;5.468;2023-05-24T03:58:07;101509.84;;;3.74
53667;BMP280;39568;51.026;5.468;2023-05-24T04:00:35;101515.41;;;3.76
53667;BMP280;39568;51.026;5.468;2023-05-24T04:03:01;101509.59;;;3.85
53667;BMP280;39568;51.026;5.468;2023-05-24T04:05:30;101515.75;;;3.94
53667;BMP280;39568;51.026;5.468;2023-05-24T04:07:57;101515.59;;;3.85
53667;BMP280;39568;51.026;5.468;2023-05-24T04:10:24;101520.78;;;3.89
53667;BMP280;39568;51.026;5.468;2023-05-24T04:12:50;101523.31;;;3.92
53667;BMP280;39568;51.026;5.468;2023-05-24T04:15:17;101523.16;;;3.99
53667;BMP280;39568;51.026;5.468;2023-05-24T04:17:45;101529.81;;;4.04
53667;BMP280;39568;51.026;5.468;2023-05-24T04:20:12;101533.09;;;4.08
53667;BMP280;39568;51.026;5.468;2023-05-24T04:22:39;101526.16;;;4.14
53667;BMP280;39568;51.026;5.468;2023-05-24T04:25:07;101527.22;;;4.17
53667;BMP280;39568;51.026;5.468;2023-05-24T04:27:34;101532.22;;;4.27
53667;BMP280;39568;51.026;5.468;2023-05-24T04:30:00;101540.81;;;4.44
53667;BMP280;39568;51.026;5.468;2023-05-24T04:32:27;101542.16;;;4.65
53667;BMP280;39568;51.026;5.468;2023-05-24T04:34:56;101545.84;;;4.67
53667;BMP280;39568;51.026;5.468;2023-05-24T04:37:22;101540.28;;;4.78
53667;BMP280;39568;51.026;5.468;2023-05-24T04:39:49;101551.06;;;4.96
53667;BMP280;39568;51.026;5.468;2023-05-24T04:42:16;101550.44;;;5.30
53667;BMP280;39568;51.026;5.468;2023-05-24T04:44:42;101545.38;;;5.48
53667;BMP280;39568;51.026;5.468;2023-05-24T04:47:09;101552.75;;;5.53
53667;BMP280;39568;51.026;5.468;2023-05-24T04:49:37;101554.75;;;5.62
53667;BMP280;39568;51.026;5.468;2023-05-24T04:52:06;101552.53;;;5.60
53667;BMP280;39568;51.026;5.468;2023-05-24T04:54:33;101554.72;;;5.74
53667;BMP280;39568;51.026;5.468;2023-05-24T04:56:59;101561.38;;;5.79
53667;BMP280;39568;51.026;5.468;2023-05-24T04:59:26;101566.28;;;5.89
53667;BMP280;39568;51.026;5.468;2023-05-24T05:01:53;101555.09;;;6.20
53667;BMP280;39568;51.026;5.468;2023-05-24T05:04:19;101553.75;;;6.37
53667;BMP280;39568;51.026;5.468;2023-05-24T05:06:46;101559.91;;;6.34
53667;BMP280;39568;51.026;5.468;2023-05-24T05:09:14;101565.81;;;6.38
53667;BMP280;39568;51.026;5.468;2023-05-24T05:11:41;101568.50;;;6.47
53667;BMP280;39568;51.026;5.468;2023-05-24T05:14:08;101568.63;;;6.65
53667;BMP280;39568;51.026;5.468;2023-05-24T05:16:35;101562.81;;;6.79
53667;BMP280;39568;51.026;5.468;2023-05-24T05:19:02;101562.66;;;7.04
53667;BMP280;39568;51.026;5.468;2023-05-24T05:21:30;101563.84;;;7.21
53667;BMP280;39568;51.026;5.468;2023-05-24T05:23:58;101564.16;;;7.23
53667;BMP280;39568;51.026;5.468;2023-05-24T05:26:26;101568.16;;;7.37
53667;BMP280;39568;51.026;5.468;2023-05-24T05:28:53;101568.81;;;7.50
53667;BMP280;39568;51.026;5.468;2023-05-24T05:31:20;101568.22;;;7.55
53667;BMP280;39568;51.026;5.468;2023-05-24T05:33:47;101569.53;;;7.60
53667;BMP280;39568;51.026;5.468;2023-05-24T05:36:14;101566.34;;;7.74
53667;BMP280;39568;51.026;5.468;2023-05-24T05:38:40;101564.97;;;7.88
53667;BMP280;39568;51.026;5.468;2023-05-24T05:41:07;101566.31;;;8.01
53667;BMP280;39568;51.026;5.468;2023-05-24T05:43:35;101574.53;;;8.30
53667;BMP280;39568;51.026;5.468;2023-05-24T05:46:02;101571.28;;;8.35
53667;BMP280;39568;51.026;5.468;2023-05-24T05:48:28;101576.13;;;8.46
53667;BMP280;39568;51.026;5.468;2023-05-24T05:50:55;101577.13;;;8.67
53667;BMP280;39568;51.026;5.468;2023-05-24T05:53:22;101569.44;;;8.69
53667;BMP280;39568;51.026;5.468;2023-05-24T05:55:49;101572.34;;;8.80
53667;BMP280;39568;51.026;5.468;2023-05-24T05:58:16;101563.31;;;8.95
53667;BMP280;39568;51.026;5.468;2023-05-24T06:00:44;101565.09;;;9.13
53667;BMP280;39568;51.026;5.468;2023-05-24T06:03:10;101563.38;;;9.34
53667;BMP280;39568;51.026;5.468;2023-05-24T06:05:37;101566.97;;;9.45
53667;BMP280;39568;51.026;5.468;2023-05-24T06:08:04;101564.69;;;9.77
53667;BMP280;39568;51.026;5.468;2023-05-24T06:10:30;101564.13;;;9.87
53667;BMP280;39568;51.026;5.468;2023-05-24T06:12:57;101556.72;;;9.91
53667;BMP280;39568;51.026;5.468;2023-05-24T06:15:24;101557.84;;;10.14
53667;BMP280;39568;51.026;5.468;2023-05-24T06:17:52;101564.97;;;10.08
53667;BMP280;39568;51.026;5.468;2023-05-24T06:20:19;101568.75;;;10.16
53667;BMP280;39568;51.026;5.468;2023-05-24T06:22:46;101569.22;;;10.29
53667;BMP280;39568;51.026;5.468;2023-05-24T06:25:15;101570.84;;;10.41
53667;BMP280;39568;51.026;5.468;2023-05-24T06:27:45;101574.50;;;10.58
53667;BMP280;39568;51.026;5.468;2023-05-24T06:30:12;101578.31;;;10.72
53667;BMP280;39568;51.026;5.468;2023-05-24T06:32:39;101573.28;;;10.94
53667;BMP280;39568;51.026;5.468;2023-05-24T06:35:08;101579.31;;;11.09
53667;BMP280;39568;51.026;5.468;2023-05-24T06:37:35;101582.84;;;11.21
53667;BMP280;39568;51.026;5.468;2023-05-24T06:40:09;101595.31;;;11.29
53667;BMP280;39568;51.026;5.468;2023-05-24T06:42:36;101595.72;;;11.42
53667;BMP280;39568;51.026;5.468;2023-05-24T06:45:04;101606.28;;;11.57
53667;BMP280;39568;51.026;5.468;2023-05-24T06:47:30;101604.00;;;11.70
53667;BMP280;39568;51.026;5.468;2023-05-24T06:49:57;101596.69;;;11.91
53667;BMP280;39568;51.026;5.468;2023-05-24T06:52:26;101595.34;;;12.01
53667;BMP280;39568;51.026;5.468;2023-05-24T06:54:53;101610.19;;;12.07
53667;BMP280;39568;51.026;5.468;2023-05-24T06:57:20;101607.13;;;12.20
53667;BMP280;39568;51.026;5.468;2023-05-24T06:59:46;101599.72;;;12.35
53667;BMP280;39568;51.026;5.468;2023-05-24T07:02:13;101606.56;;;12.42
53667;BMP280;39568;51.026;5.468;2023-05-24T07:04:40;101599.53;;;12.39
53667;BMP280;39568;51.026;5.468;2023-05-24T07:07:07;101595.78;;;12.25
53667;BMP280;39568;51.026;5.468;2023-05-24T07:09:39;101591.47;;;12.33
53667;BMP280;39568;51.026;5.468;2023-05-24T07:12:06;101590.53;;;12.42
53667;BMP280;39568;51.026;5.468;2023-05-24T07:14:33;101606.28;;;12.71
53667;BMP280;39568;51.026;5.468;2023-05-24T07:17:00;101598.88;;;12.97
53667;BMP280;39568;51.026;5.468;2023-05-24T07:19:27;101596.63;;;13.44
53667;BMP280;39568;51.026;5.468;2023-05-24T07:21:53;101603.00;;;13.90
53667;BMP280;39568;51.026;5.468;2023-05-24T07:24:20;101596.22;;;14.23
53667;BMP280;39568;51.026;5.468;2023-05-24T07:26:50;101611.50;;;14.44
53667;BMP280;39568;51.026;5.468;2023-05-24T07:29:17;101606.41;;;14.30
53667;BMP280;39568;51.026;5.468;2023-05-24T07:31:43;101603.75;;;13.58
53667;BMP280;39568;51.026;5.468;2023-05-24T07:34:10;101598.47;;;13.10
53667;BMP280;39568;51.026;5.468;2023-05-24T07:36:37;101598.75;;;13.17
53667;BMP280;39568;51.026;5.468;2023-05-24T07:39:05;101596.84;;;13.34
53667;BMP280;39568;51.026;5.468;2023-05-24T07:41:34;101588.88;;;13.46
53667;BMP280;39568;51.026;5.468;2023-05-24T07:44:02;101595.63;;;13.30
53667;BMP280;39568;51.026;5.468;2023-05-24T07:46:28;101599.31;;;13.55
53667;BMP280;39568;51.026;5.468;2023-05-24T07:48:55;101596.38;;;13.42
53667;BMP280;39568;51.026;5.468;2023-05-24T07:51:22;101608.25;;;13.35
53667;BMP280;39568;51.026;5.468;2023-05-24T07:53:48;101595.94;;;13.60
53667;BMP280;39568;51.026;5.468;2023-05-24T07:56:15;101588.41;;;13.86
53667;BMP280;39568;51.026;5.468;2023-05-24T07:58:42;101590.34;;;13.63
53667;BMP280;39568;51.026;5.468;2023-05-24T08:01:13;101594.72;;;13.61
53667;BMP280;39568;51.026;5.468;2023-05-24T08:03:39;101594.03;;;13.88
53667;BMP280;39568;51.026;5.468;2023-05-24T08:06:07;101602.31;;;14.01
53667;BMP280;39568;51.026;5.468;2023-05-24T08:08:34;101611.31;;;13.92
53667;BMP280;39568;51.026;5.468;2023-05-24T08:11:01;101607.66;;;14.12
53667;BMP280;39568;51.026;5.468;2023-05-24T08:13:27;101611.44;;;14.72
53667;BMP280;39568;51.026;5.468;2023-05-24T08:15:54;101612.88;;;15.30
53667;BMP280;39568;51.026;5.468;2023-05-24T08:18:22;101618.06;;;15.64
53667;BMP280;39568;51.026;5.468;2023-05-24T08:20:48;101602.41;;;15.97
53667;BMP280;39568;51.026;5.468;2023-05-24T08:23:16;101609.38;;;16.36
53667;BMP280;39568;51.026;5.468;2023-05-24T08:25:42;101614.06;;;16.54
53667;BMP280;39568;51.026;5.468;2023-05-24T08:28:09;101608.78;;;16.67
53667;BMP280;39568;51.026;5.468;2023-05-24T08:30:36;101608.22;;;16.31
53667;BMP280;39568;51.026;5.468;2023-05-24T08:33:03;101602.97;;;16.63
53667;BMP280;39568;51.026;5.468;2023-05-24T08:35:31;101597.56;;;16.87
53667;BMP280;39568;51.026;5.468;2023-05-24T08:37:57;101605.19;;;17.20
53667;BMP280;39568;51.026;5.468;2023-05-24T08:40:24;101607.94;;;17.15
53667;BMP280;39568;51.026;5.468;2023-05-24T08:42:51;101604.38;;;17.07
53667;BMP280;39568;51.026;5.468;2023-05-24T08:45:20;101602.06;;;16.98
53667;BMP280;39568;51.026;5.468;2023-05-24T08:47:49;101595.00;;;16.33
53667;BMP280;39568;51.026;5.468;2023-05-24T08:50:16;101591.34;;;16.55
53667;BMP280;39568;51.026;5.468;2023-05-24T08:52:45;101590.19;;;16.69
53667;BMP280;39568;51.026;5.468;2023-05-24T08:55:13;101589.63;;;16.76
53667;BMP280;39568;51.026;5.468;2023-05-24T08:57:40;101582.44;;;15.93
53667;BMP280;39568;51.026;5.468;2023-05-24T09:00:09;101581.94;;;15.35
53667;BMP280;39568;51.026;5.468;2023-05-24T09:02:37;101586.59;;;15.94
53667;BMP280;39568;51.026;5.468;2023-05-24T09:05:07;101589.19;;;16.72
53667;BMP280;39568;51.026;5.468;2023-05-24T09:07:35;101582.88;;;17.38
53667;BMP280;39568;51.026;5.468;2023-05-24T09:10:05;101585.91;;;18.06
53667;BMP280;39568;51.026;5.468;2023-05-24T09:12:33;101586.97;;;18.03
53667;BMP280;39568;51.026;5.468;2023-05-24T09:15:01;101588.59;;;17.80
53667;BMP280;39568;51.026;5.468;2023-05-24T09:17:28;101591.28;;;17.80
53667;BMP280;39568;51.026;5.468;2023-05-24T09:19:56;101585.81;;;17.40
53667;BMP280;39568;51.026;5.468;2023-05-24T09:22:25;101582.78;;;17.89
53667;BMP280;39568;51.026;5.468;2023-05-24T09:24:56;101592.81;;;19.00
53667;BMP280;39568;51.026;5.468;2023-05-24T09:27:25;101582.41;;;19.46
53667;BMP280;39568;51.026;5.468;2023-05-24T09:29:52;101592.63;;;19.40
53667;BMP280;39568;51.026;5.468;2023-05-24T09:32:21;101584.09;;;20.86
53667;BMP280;39568;51.026;5.468;2023-05-24T09:34:50;101587.94;;;21.13
53667;BMP280;39568;51.026;5.468;2023-05-24T09:37:18;101583.41;;;21.53
53667;BMP280;39568;51.026;5.468;2023-05-24T09:39:47;101582.41;;;21.88
53667;BMP280;39568;51.026;5.468;2023-05-24T09:42:15;101581.44;;;24.36
53667;BMP280;39568;51.026;5.468;2023-05-24T09:44:46;101581.66;;;24.48
53667;BMP280;39568;51.026;5.468;2023-05-24T09:47:14;101577.81;;;25.35
53667;BMP280;39568;51.026;5.468;2023-05-24T09:49:40;101583.72;;;26.40
53667;BMP280;39568;51.026;5.468;2023-05-24T09:52:08;101575.28;;;24.62
53667;BMP280;39568;51.026;5.468;2023-05-24T09:54:39;101559.28;;;26.73
53667;BMP280;39568;51.026;5.468;2023-05-24T09:57:06;101558.53;;;28.76
53667;BMP280;39568;51.026;5.468;2023-05-24T09:59:33;101561.47;;;28.55
53667;BMP280;39568;51.026;5.468;2023-05-24T10:02:08;101570.66;;;27.79
53667;BMP280;39568;51.026;5.468;2023-05-24T10:04:38;101562.69;;;25.72
53667;BMP280;39568;51.026;5.468;2023-05-24T10:07:05;101571.72;;;23.63
53667;BMP280;39568;51.026;5.468;2023-05-24T10:09:34;101574.66;;;22.25
53667;BMP280;39568;51.026;5.468;2023-05-24T10:12:01;101565.59;;;23.04
53667;BMP280;39568;51.026;5.468;2023-05-24T10:14:31;101565.75;;;25.19
53667;BMP280;39568;51.026;5.468;2023-05-24T10:16:58;101562.66;;;24.57
53667;BMP280;39568;51.026;5.468;2023-05-24T10:19:26;101554.16;;;23.64
53667;BMP280;39568;51.026;5.468;2023-05-24T10:21:55;101555.22;;;25.82
53667;BMP280;39568;51.026;5.468;2023-05-24T10:24:24;101555.16;;;25.32
53667;BMP280;39568;51.026;5.468;2023-05-24T10:26:52;101560.59;;;26.41
53667;BMP280;39568;51.026;5.468;2023-05-24T10:32:09;101563.53;;;28.43
53667;BMP280;39568;51.026;5.468;2023-05-24T10:34:39;101572.69;;;29.09
53667;BMP280;39568;51.026;5.468;2023-05-24T10:37:07;101559.84;;;29.00
53667;BMP280;39568;51.026;5.468;2023-05-24T10:39:34;101554.31;;;25.20
53667;BMP280;39568;51.026;5.468;2023-05-24T10:42:01;101562.34;;;24.17
53667;BMP280;39568;51.026;5.468;2023-05-24T10:44:29;101564.84;;;23.62
53667;BMP280;39568;51.026;5.468;2023-05-24T10:47:06;101563.41;;;21.04
53667;BMP280;39568;51.026;5.468;2023-05-24T10:49:34;101560.47;;;22.02
53667;BMP280;39568;51.026;5.468;2023-05-24T10:52:06;101557.13;;;23.85
53667;BMP280;39568;51.026;5.468;2023-05-24T10:54:33;101552.38;;;24.65
53667;BMP280;39568;51.026;5.468;2023-05-24T10:57:01;101549.28;;;23.45
53667;BMP280;39568;51.026;5.468;2023-05-24T10:59:35;101550.72;;;23.63
53667;BMP280;39568;51.026;5.468;2023-05-24T11:02:05;101544.34;;;23.95
53667;BMP280;39568;51.026;5.468;2023-05-24T11:04:36;101548.63;;;23.98
53667;BMP280;39568;51.026;5.468;2023-05-24T11:07:06;101538.19;;;26.12
53667;BMP280;39568;51.026;5.468;2023-05-24T11:09:35;101545.78;;;26.14
53667;BMP280;39568;51.026;5.468;2023-05-24T11:12:03;101551.53;;;26.08
53667;BMP280;39568;51.026;5.468;2023-05-24T11:14:35;101548.78;;;24.72
53667;BMP280;39568;51.026;5.468;2023-05-24T11:17:02;101545.38;;;27.02
53667;BMP280;39568;51.026;5.468;2023-05-24T11:19:31;101547.03;;;29.16
53667;BMP280;39568;51.026;5.468;2023-05-24T11:22:01;101546.91;;;30.21
53667;BMP280;39568;51.026;5.468;2023-05-24T11:24:29;101545.63;;;31.40
53667;BMP280;39568;51.026;5.468;2023-05-24T11:26:56;101532.66;;;32.26
53667;BMP280;39568;51.026;5.468;2023-05-24T11:29:23;101539.94;;;31.36
53667;BMP280;39568;51.026;5.468;2023-05-24T11:31:50;101541.75;;;27.99
53667;BMP280;39568;51.026;5.468;2023-05-24T11:34:17;101539.25;;;28.26
53667;BMP280;39568;51.026;5.468;2023-05-24T11:36:45;101532.88;;;30.28
53667;BMP280;39568;51.026;5.468;2023-05-24T11:39:12;101526.19;;;32.73
53667;BMP280;39568;51.026;5.468;2023-05-24T11:41:41;101524.09;;;32.54
53667;BMP280;39568;51.026;5.468;2023-05-24T11:44:09;101531.31;;;30.97
53667;BMP280;39568;51.026;5.468;2023-05-24T11:46:37;101538.63;;;29.65
53667;BMP280;39568;51.026;5.468;2023-05-24T11:49:04;101528.00;;;26.97
53667;BMP280;39568;51.026;5.468;2023-05-24T11:51:33;101528.63;;;26.32
53667;BMP280;39568;51.026;5.468;2023-05-24T11:54:01;101526.91;;;24.34
53667;BMP280;39568;51.026;5.468;2023-05-24T11:56:29;101533.53;;;24.41
53667;BMP280;39568;51.026;5.468;2023-05-24T11:59:07;101521.78;;;24.48
53667;BMP280;39568;51.026;5.468;2023-05-24T12:01:34;101523.16;;;24.95
53667;BMP280;39568;51.026;5.468;2023-05-24T12:04:04;101515.59;;;24.93
53667;BMP280;39568;51.026;5.468;2023-05-24T12:06:36;101516.00;;;25.47
53667;BMP280;39568;51.026;5.468;2023-05-24T12:09:03;101520.72;;;25.56
53667;BMP280;39568;51.026;5.468;2023-05-24T12:11:32;101518.75;;;24.90
53667;BMP280;39568;51.026;5.468;2023-05-24T12:14:01;101524.25;;;23.47
53667;BMP280;39568;51.026;5.468;2023-05-24T12:16:28;101520.84;;;22.70
53667;BMP280;39568;51.026;5.468;2023-05-24T12:18:57;101513.81;;;23.09
53667;BMP280;39568;51.026;5.468;2023-05-24T12:21:24;101525.22;;;23.42
53667;BMP280;39568;51.026;5.468;2023-05-24T12:23:55;101522.09;;;23.11
53667;BMP280;39568;51.026;5.468;2023-05-24T12:26:22;101524.34;;;22.63
53667;BMP280;39568;51.026;5.468;2023-05-24T12:28:52;101516.03;;;22.61
53667;BMP280;39568;51.026;5.468;2023-05-24T12:31:21;101517.88;;;21.95
53667;BMP280;39568;51.026;5.468;2023-05-24T12:33:47;101514.38;;;22.09
53667;BMP280;39568;51.026;5.468;2023-05-24T12:36:14;101515.09;;;22.42
53667;BMP280;39568;51.026;5.468;2023-05-24T12:38:41;101512.28;;;21.38
53667;BMP280;39568;51.026;5.468;2023-05-24T12:41:09;101516.41;;;21.61
53667;BMP280;39568;51.026;5.468;2023-05-24T12:43:38;101518.41;;;21.53
53667;BMP280;39568;51.026;5.468;2023-05-24T12:46:04;101512.25;;;21.53
53667;BMP280;39568;51.026;5.468;2023-05-24T12:48:33;101507.25;;;21.89
53667;BMP280;39568;51.026;5.468;2023-05-24T12:51:00;101511.97;;;21.88
53667;BMP280;39568;51.026;5.468;2023-05-24T12:53:28;101513.69;;;21.54
53667;BMP280;39568;51.026;5.468;2023-05-24T12:55:55;101517.03;;;20.99
53667;BMP280;39568;51.026;5.468;2023-05-24T12:58:21;101511.59;;;21.30
53667;BMP280;39568;51.026;5.468;2023-05-24T13:00:48;101513.00;;;21.93
53667;BMP280;39568;51.026;5.468;2023-05-24T13:03:16;101508.66;;;22.30
53667;BMP280;39568;51.026;5.468;2023-05-24T13:05:44;101509.03;;;22.26
53667;BMP280;39568;51.026;5.468;2023-05-24T13:08:11;101517.75;;;22.17
53667;BMP280;39568;51.026;5.468;2023-05-24T13:10:38;101512.34;;;21.15
53667;BMP280;39568;51.026;5.468;2023-05-24T13:13:05;101510.53;;;21.02
53667;BMP280;39568;51.026;5.468;2023-05-24T13:15:32;101504.78;;;20.83
53667;BMP280;39568;51.026;5.468;2023-05-24T13:17:59;101505.13;;;21.18
53667;BMP280;39568;51.026;5.468;2023-05-24T13:20:26;101518.31;;;20.83
53667;BMP280;39568;51.026;5.468;2023-05-24T13:22:54;101519.81;;;19.83
53667;BMP280;39568;51.026;5.468;2023-05-24T13:25:21;101519.41;;;19.43
53667;BMP280;39568;51.026;5.468;2023-05-24T13:27:48;101520.41;;;19.89
53667;BMP280;39568;51.026;5.468;2023-05-24T13:30:14;101516.16;;;20.16
53667;BMP280;39568;51.026;5.468;2023-05-24T13:32:42;101518.44;;;20.55
53667;BMP280;39568;51.026;5.468;2023-05-24T13:35:09;101516.78;;;20.45
53667;BMP280;39568;51.026;5.468;2023-05-24T13:37:35;101509.25;;;20.51
53667;BMP280;39568;51.026;5.468;2023-05-24T13:40:05;101513.03;;;20.78
53667;BMP280;39568;51.026;5.468;2023-05-24T13:42:32;101510.53;;;20.87
53667;BMP280;39568;51.026;5.468;2023-05-24T13:44:59;101518.09;;;20.81
53667;BMP280;39568;51.026;5.468;2023-05-24T13:47:25;101511.63;;;20.11
53667;BMP280;39568;51.026;5.468;2023-05-24T13:49:52;101512.06;;;19.02
53667;BMP280;39568;51.026;5.468;2023-05-24T13:52:19;101518.53;;;19.76
53667;BMP280;39568;51.026;5.468;2023-05-24T13:54:45;101512.31;;;20.47
53667;BMP280;39568;51.026;5.468;2023-05-24T13:57:15;101517.56;;;20.68
53667;BMP280;39568;51.026;5.468;2023-05-24T13:59:41;101506.53;;;20.73
53667;BMP280;39568;51.026;5.468;2023-05-24T14:02:08;101515.75;;;20.85
53667;BMP280;39568;51.026;5.468;2023-05-24T14:04:35;101519.16;;;21.31
53667;BMP280;39568;51.026;5.468;2023-05-24T14:07:02;101516.44;;;21.31
53667;BMP280;39568;51.026;5.468;2023-05-24T14:09:29;101514.09;;;21.35